sensor_id;sensor_type;location;lat;lon;timestamp;pressure;altitude;pressure_sealevel;temperature
60731;BMP280;46580;52.114;11.674;2024-03-23T00:54:24;-19471.19;;;9.11
60731;BMP280;46580;52.114;11.674;2024-03-23T00:56:49;-19470.75;;;9.10
60731;BMP280;46580;52.114;11.674;2024-03-23T00:59:16;-19470.31;;;9.08
60731;BMP280;46580;52.114;11.674;2024-03-23T01:01:41;-19469.75;;;9.06
60731;BMP280;46580;52.114;11.674;2024-03-23T01:04:07;-19469.75;;;9.06
60731;BMP280;46580;52.114;11.674;2024-03-23T01:06:32;-19469.75;;;9.06
60731;BMP280;46580;52.114;11.674;2024-03-23T01:08:58;-19470.59;;;9.09
60731;BMP280;46580;52.114;11.674;2024-03-23T01:11:23;-19471.59;;;9.12
60731;BMP280;46580;52.114;11.674;2024-03-23T01:13:50;-19473.75;;;9.20
60731;BMP280;46580;52.114;11.674;2024-03-23T01:16:15;-19472.19;;;9.14
60731;BMP280;46580;52.114;11.674;2024-03-23T01:18:42;-19473.63;;;9.19
60731;BMP280;46580;52.114;11.674;2024-03-23T01:21:07;-19472.31;;;9.15
60731;BMP280;46580;52.114;11.674;2024-03-23T01:23:33;-19472.63;;;9.16
60731;BMP280;46580;52.114;11.674;2024-03-23T01:26:00;-19473.19;;;9.18
60731;BMP280;46580;52.114;11.674;2024-03-23T01:28:26;-19470.59;;;9.09
60731;BMP280;46580;52.114;11.674;2024-03-23T01:30:52;-19469.47;;;9.05
60731;BMP280;46580;52.114;11.674;2024-03-23T01:33:18;-19469.75;;;9.06
60731;BMP280;46580;52.114;11.674;2024-03-23T01:35:44;-19469.31;;;9.05
60731;BMP280;46580;52.114;11.674;2024-03-23T01:38:10;-19470.03;;;9.07
60731;BMP280;46580;52.114;11.674;2024-03-23T01:40:35;-19472.31;;;9.15
60731;BMP280;46580;52.114;11.674;2024-03-23T01:43:08;-19471.47;;;9.12
60731;BMP280;46580;52.114;11.674;2024-03-23T01:45:34;-19470.88;;;9.10
60731;BMP280;46580;52.114;11.674;2024-03-23T01:47:59;-19469.03;;;9.04
60731;BMP280;46580;52.114;11.674;2024-03-23T01:50:26;-19468.88;;;9.03
60731;BMP280;46580;52.114;11.674;2024-03-23T01:52:52;-19469.16;;;9.04
60731;BMP280;46580;52.114;11.674;2024-03-23T01:55:18;-19470.03;;;9.07
60731;BMP280;46580;52.114;11.674;2024-03-23T01:57:52;-19472.47;;;9.15
60731;BMP280;46580;52.114;11.674;2024-03-23T02:00:18;-19469.47;;;9.05
60731;BMP280;46580;52.114;11.674;2024-03-23T02:02:44;-19468.31;;;9.01
60731;BMP280;46580;52.114;11.674;2024-03-23T02:05:14;-19466.88;;;8.96
60731;BMP280;46580;52.114;11.674;2024-03-23T02:07:40;-19465.72;;;8.92
60731;BMP280;46580;52.114;11.674;2024-03-23T02:10:07;-19467.88;;;9.00
60731;BMP280;46580;52.114;11.674;2024-03-23T02:12:37;-19467.75;;;8.99
60731;BMP280;46580;52.114;11.674;2024-03-23T02:15:03;-19470.88;;;9.10
60731;BMP280;46580;52.114;11.674;2024-03-23T02:17:31;-19467.75;;;8.99
60731;BMP280;46580;52.114;11.674;2024-03-23T02:19:58;-19455.56;;;8.58
60731;BMP280;46580;52.114;11.674;2024-03-23T02:22:24;-19456.28;;;8.60
60731;BMP280;46580;52.114;11.674;2024-03-23T02:24:50;-19453.56;;;8.51
60731;BMP280;46580;52.114;11.674;2024-03-23T02:27:16;-19456.72;;;8.62
60731;BMP280;46580;52.114;11.674;2024-03-23T02:29:41;-19454.84;;;8.55
60731;BMP280;46580;52.114;11.674;2024-03-23T02:32:07;-19450.13;;;8.39
60731;BMP280;46580;52.114;11.674;2024-03-23T02:34:34;-19448.69;;;8.35
60731;BMP280;46580;52.114;11.674;2024-03-23T02:37:00;-19446.84;;;8.28
60731;BMP280;46580;52.114;11.674;2024-03-23T02:39:26;-19444.81;;;8.21
60731;BMP280;46580;52.114;11.674;2024-03-23T02:41:51;-19441.25;;;8.09
60731;BMP280;46580;52.114;11.674;2024-03-23T02:44:17;-19442.97;;;8.15
60731;BMP280;46580;52.114;11.674;2024-03-23T02:46:43;-19439.38;;;8.03
60731;BMP280;46580;52.114;11.674;2024-03-23T02:49:09;-19434.50;;;7.86
60731;BMP280;46580;52.114;11.674;2024-03-23T02:51:35;-19432.63;;;7.80
60731;BMP280;46580;52.114;11.674;2024-03-23T02:54:01;-19432.78;;;7.80
60731;BMP280;46580;52.114;11.674;2024-03-23T02:56:28;-19430.63;;;7.73
60731;BMP280;46580;52.114;11.674;2024-03-23T02:58:53;-19431.78;;;7.77
60731;BMP280;46580;52.114;11.674;2024-03-23T03:01:18;-19431.63;;;7.77
60731;BMP280;46580;52.114;11.674;2024-03-23T03:03:47;-19428.78;;;7.67
60731;BMP280;46580;52.114;11.674;2024-03-23T03:06:22;-19428.63;;;7.66
60731;BMP280;46580;52.114;11.674;2024-03-23T03:08:48;-19427.63;;;7.63
60731;BMP280;46580;52.114;11.674;2024-03-23T03:11:14;-19429.19;;;7.68
60731;BMP280;46580;52.114;11.674;2024-03-23T03:13:39;-19428.91;;;7.67
60731;BMP280;46580;52.114;11.674;2024-03-23T03:16:11;-19433.34;;;7.82
60731;BMP280;46580;52.114;11.674;2024-03-23T03:18:37;-19429.34;;;7.69
60731;BMP280;46580;52.114;11.674;2024-03-23T03:21:04;-19425.31;;;7.55
60731;BMP280;46580;52.114;11.674;2024-03-23T03:23:32;-19424.47;;;7.52
60731;BMP280;46580;52.114;11.674;2024-03-23T03:26:00;-19424.31;;;7.52
60731;BMP280;46580;52.114;11.674;2024-03-23T03:28:25;-19420.59;;;7.39
60731;BMP280;46580;52.114;11.674;2024-03-23T03:30:51;-19418.59;;;7.32
60731;BMP280;46580;52.114;11.674;2024-03-23T03:33:18;-19419.31;;;7.35
60731;BMP280;46580;52.114;11.674;2024-03-23T03:35:43;-19419.59;;;7.36
60731;BMP280;46580;52.114;11.674;2024-03-23T03:38:14;-19418.88;;;7.33
60731;BMP280;46580;52.114;11.674;2024-03-23T03:40:41;-19416.44;;;7.25
60731;BMP280;46580;52.114;11.674;2024-03-23T03:43:07;-19417.72;;;7.29
60731;BMP280;46580;52.114;11.674;2024-03-23T03:45:34;-19423.31;;;7.48
60731;BMP280;46580;52.114;11.674;2024-03-23T03:48:00;-19424.03;;;7.51
60731;BMP280;46580;52.114;11.674;2024-03-23T03:50:25;-19421.88;;;7.43
60731;BMP280;46580;52.114;11.674;2024-03-23T03:52:50;-19424.31;;;7.52
60731;BMP280;46580;52.114;11.674;2024-03-23T03:55:16;-19425.03;;;7.54
60731;BMP280;46580;52.114;11.674;2024-03-23T03:57:42;-19425.91;;;7.57
60731;BMP280;46580;52.114;11.674;2024-03-23T04:00:08;-19426.75;;;7.60
60731;BMP280;46580;52.114;11.674;2024-03-23T04:02:40;-19427.63;;;7.63
60731;BMP280;46580;52.114;11.674;2024-03-23T04:05:06;-19424.75;;;7.53
60731;BMP280;46580;52.114;11.674;2024-03-23T04:07:33;-19423.88;;;7.50
60731;BMP280;46580;52.114;11.674;2024-03-23T04:09:58;-19424.03;;;7.51
60731;BMP280;46580;52.114;11.674;2024-03-23T04:12:24;-19425.03;;;7.54
60731;BMP280;46580;52.114;11.674;2024-03-23T04:14:49;-19424.03;;;7.51
60731;BMP280;46580;52.114;11.674;2024-03-23T04:17:14;-19422.47;;;7.45
60731;BMP280;46580;52.114;11.674;2024-03-23T04:19:40;-19421.44;;;7.42
60731;BMP280;46580;52.114;11.674;2024-03-23T04:22:06;-19420.59;;;7.39
60731;BMP280;46580;52.114;11.674;2024-03-23T04:24:37;-19420.88;;;7.40
60731;BMP280;46580;52.114;11.674;2024-03-23T04:27:04;-19418.72;;;7.33
60731;BMP280;46580;52.114;11.674;2024-03-23T04:29:30;-19415.88;;;7.23
60731;BMP280;46580;52.114;11.674;2024-03-23T04:31:56;-19414.00;;;7.17
60731;BMP280;46580;52.114;11.674;2024-03-23T04:34:22;-19415.72;;;7.23
60731;BMP280;46580;52.114;11.674;2024-03-23T04:36:48;-19416.16;;;7.24
60731;BMP280;46580;52.114;11.674;2024-03-23T04:39:13;-19416.44;;;7.25
60731;BMP280;46580;52.114;11.674;2024-03-23T04:41:40;-19414.44;;;7.18
60731;BMP280;46580;52.114;11.674;2024-03-23T04:44:06;-19415.28;;;7.21
60731;BMP280;46580;52.114;11.674;2024-03-23T04:46:32;-19413.28;;;7.14
60731;BMP280;46580;52.114;11.674;2024-03-23T04:48:58;-19411.41;;;7.08
60731;BMP280;46580;52.114;11.674;2024-03-23T04:51:24;-19413.00;;;7.13
60731;BMP280;46580;52.114;11.674;2024-03-23T04:53:50;-19413.56;;;7.15
60731;BMP280;46580;52.114;11.674;2024-03-23T04:56:16;-19414.16;;;7.17
60731;BMP280;46580;52.114;11.674;2024-03-23T04:58:46;-19414.72;;;7.19
60731;BMP280;46580;52.114;11.674;2024-03-23T05:01:12;-19413.84;;;7.16
60731;BMP280;46580;52.114;11.674;2024-03-23T05:03:38;-19413.72;;;7.16
60731;BMP280;46580;52.114;11.674;2024-03-23T05:06:04;-19413.56;;;7.15
60731;BMP280;46580;52.114;11.674;2024-03-23T05:08:31;-19412.72;;;7.12
60731;BMP280;46580;52.114;11.674;2024-03-23T05:10:58;-19411.84;;;7.09
60731;BMP280;46580;52.114;11.674;2024-03-23T05:13:24;-19408.69;;;6.99
60731;BMP280;46580;52.114;11.674;2024-03-23T05:15:55;-19410.72;;;7.05
60731;BMP280;46580;52.114;11.674;2024-03-23T05:18:22;-19411.56;;;7.08
60731;BMP280;46580;52.114;11.674;2024-03-23T05:20:58;-19411.13;;;7.07
60731;BMP280;46580;52.114;11.674;2024-03-23T05:23:25;-19410.13;;;7.04
60731;BMP280;46580;52.114;11.674;2024-03-23T05:25:50;-19409.56;;;7.02
60731;BMP280;46580;52.114;11.674;2024-03-23T05:28:20;-19407.69;;;6.95
60731;BMP280;46580;52.114;11.674;2024-03-23T05:30:56;-19404.69;;;6.85
60731;BMP280;46580;52.114;11.674;2024-03-23T05:33:22;-19405.41;;;6.87
60731;BMP280;46580;52.114;11.674;2024-03-23T05:35:59;-19405.69;;;6.88
60731;BMP280;46580;52.114;11.674;2024-03-23T05:38:26;-19405.53;;;6.88
60731;BMP280;46580;52.114;11.674;2024-03-23T05:41:00;-19403.81;;;6.82
60731;BMP280;46580;52.114;11.674;2024-03-23T05:43:28;-19406.97;;;6.93
60731;BMP280;46580;52.114;11.674;2024-03-23T05:45:59;-19409.56;;;7.02
60731;BMP280;46580;52.114;11.674;2024-03-23T05:48:27;-19409.84;;;7.03
60731;BMP280;46580;52.114;11.674;2024-03-23T05:50:53;-19410.72;;;7.05
60731;BMP280;46580;52.114;11.674;2024-03-23T05:53:21;-19411.72;;;7.09
60731;BMP280;46580;52.114;11.674;2024-03-23T05:55:46;-19411.28;;;7.07
60731;BMP280;46580;52.114;11.674;2024-03-23T05:58:17;-19405.25;;;6.87
60731;BMP280;46580;52.114;11.674;2024-03-23T06:00:43;-19402.81;;;6.79
60731;BMP280;46580;52.114;11.674;2024-03-23T06:03:10;-19403.25;;;6.80
60731;BMP280;46580;52.114;11.674;2024-03-23T06:05:38;-19403.53;;;6.81
60731;BMP280;46580;52.114;11.674;2024-03-23T06:08:05;-19403.53;;;6.81
60731;BMP280;46580;52.114;11.674;2024-03-23T06:10:36;-19399.94;;;6.69
60731;BMP280;46580;52.114;11.674;2024-03-23T06:13:02;-19403.53;;;6.81
60731;BMP280;46580;52.114;11.674;2024-03-23T06:15:28;-19404.69;;;6.85
60731;BMP280;46580;52.114;11.674;2024-03-23T06:17:56;-19402.81;;;6.79
60731;BMP280;46580;52.114;11.674;2024-03-23T06:20:22;-19405.53;;;6.88
60731;BMP280;46580;52.114;11.674;2024-03-23T06:22:48;-19405.53;;;6.88
60731;BMP280;46580;52.114;11.674;2024-03-23T06:25:14;-19407.97;;;6.96
60731;BMP280;46580;52.114;11.674;2024-03-23T06:27:40;-19406.13;;;6.90
60731;BMP280;46580;52.114;11.674;2024-03-23T06:30:06;-19402.81;;;6.79
60731;BMP280;46580;52.114;11.674;2024-03-23T06:32:32;-19400.38;;;6.70
60731;BMP280;46580;52.114;11.674;2024-03-23T06:34:58;-19400.97;;;6.72
60731;BMP280;46580;52.114;11.674;2024-03-23T06:37:25;-19400.09;;;6.69
60731;BMP280;46580;52.114;11.674;2024-03-23T06:39:51;-19399.50;;;6.68
60731;BMP280;46580;52.114;11.674;2024-03-23T06:42:18;-19401.81;;;6.75
60731;BMP280;46580;52.114;11.674;2024-03-23T06:44:44;-19400.22;;;6.70
60731;BMP280;46580;52.114;11.674;2024-03-23T06:47:12;-19395.66;;;6.54
60731;BMP280;46580;52.114;11.674;2024-03-23T06:49:38;-19399.81;;;6.68
60731;BMP280;46580;52.114;11.674;2024-03-23T06:52:04;-19399.81;;;6.68
60731;BMP280;46580;52.114;11.674;2024-03-23T06:54:30;-19401.66;;;6.75
60731;BMP280;46580;52.114;11.674;2024-03-23T06:56:56;-19403.38;;;6.81
60731;BMP280;46580;52.114;11.674;2024-03-23T06:59:22;-19401.81;;;6.75
60731;BMP280;46580;52.114;11.674;2024-03-23T07:01:48;-19402.81;;;6.79
60731;BMP280;46580;52.114;11.674;2024-03-23T07:04:14;-19405.53;;;6.88
60731;BMP280;46580;52.114;11.674;2024-03-23T07:06:45;-19403.09;;;6.80
60731;BMP280;46580;52.114;11.674;2024-03-23T07:09:15;-19401.09;;;6.73
60731;BMP280;46580;52.114;11.674;2024-03-23T07:11:42;-19405.41;;;6.87
60731;BMP280;46580;52.114;11.674;2024-03-23T07:14:08;-19404.81;;;6.86
60731;BMP280;46580;52.114;11.674;2024-03-23T07:16:40;-19404.69;;;6.85
60731;BMP280;46580;52.114;11.674;2024-03-23T07:19:06;-19403.38;;;6.81
60731;BMP280;46580;52.114;11.674;2024-03-23T07:21:32;-19395.50;;;6.54
60731;BMP280;46580;52.114;11.674;2024-03-23T07:23:58;-19391.19;;;6.39
60731;BMP280;46580;52.114;11.674;2024-03-23T07:26:24;-19395.66;;;6.54
60731;BMP280;46580;52.114;11.674;2024-03-23T07:28:50;-19395.22;;;6.53
60731;BMP280;46580;52.114;11.674;2024-03-23T07:31:16;-19392.06;;;6.42
60731;BMP280;46580;52.114;11.674;2024-03-23T07:33:45;-19391.63;;;6.41
60731;BMP280;46580;52.114;11.674;2024-03-23T07:36:10;-19394.22;;;6.49
60731;BMP280;46580;52.114;11.674;2024-03-23T07:38:37;-19392.94;;;6.45
60731;BMP280;46580;52.114;11.674;2024-03-23T07:41:08;-19391.19;;;6.39
60731;BMP280;46580;52.114;11.674;2024-03-23T07:43:35;-19389.75;;;6.34
60731;BMP280;46580;52.114;11.674;2024-03-23T07:46:01;-19388.63;;;6.31
60731;BMP280;46580;52.114;11.674;2024-03-23T07:48:27;-19390.06;;;6.35
60731;BMP280;46580;52.114;11.674;2024-03-23T07:51:05;-19390.78;;;6.38
60731;BMP280;46580;52.114;11.674;2024-03-23T07:53:32;-19390.47;;;6.37
60731;BMP280;46580;52.114;11.674;2024-03-23T07:56:02;-19391.47;;;6.40
60731;BMP280;46580;52.114;11.674;2024-03-23T07:58:28;-19392.78;;;6.45
60731;BMP280;46580;52.114;11.674;2024-03-23T08:00:56;-19391.78;;;6.41
60731;BMP280;46580;52.114;11.674;2024-03-23T08:03:22;-19389.34;;;6.33
60731;BMP280;46580;52.114;11.674;2024-03-23T08:05:48;-19389.06;;;6.32
60731;BMP280;46580;52.114;11.674;2024-03-23T08:08:14;-19391.63;;;6.41
60731;BMP280;46580;52.114;11.674;2024-03-23T08:10:51;-19389.06;;;6.32
60731;BMP280;46580;52.114;11.674;2024-03-23T08:13:17;-19388.03;;;6.29
60731;BMP280;46580;52.114;11.674;2024-03-23T08:15:45;-19393.50;;;6.47
60731;BMP280;46580;52.114;11.674;2024-03-23T08:18:12;-19392.63;;;6.44
60731;BMP280;46580;52.114;11.674;2024-03-23T08:20:40;-19389.75;;;6.34
60731;BMP280;46580;52.114;11.674;2024-03-23T08:23:06;-19389.19;;;6.32
60731;BMP280;46580;52.114;11.674;2024-03-23T08:25:32;-19393.34;;;6.47
60731;BMP280;46580;52.114;11.674;2024-03-23T08:27:58;-19391.78;;;6.41
60731;BMP280;46580;52.114;11.674;2024-03-23T08:30:24;-19392.19;;;6.43
60731;BMP280;46580;52.114;11.674;2024-03-23T08:32:50;-19393.06;;;6.46
60731;BMP280;46580;52.114;11.674;2024-03-23T08:35:16;-19385.19;;;6.19
60731;BMP280;46580;52.114;11.674;2024-03-23T08:37:42;-19386.31;;;6.23
60731;BMP280;46580;52.114;11.674;2024-03-23T08:40:08;-19385.03;;;6.18
60731;BMP280;46580;52.114;11.674;2024-03-23T08:42:34;-19382.31;;;6.09
60731;BMP280;46580;52.114;11.674;2024-03-23T08:45:00;-19382.03;;;6.08
60731;BMP280;46580;52.114;11.674;2024-03-23T08:47:25;-19384.75;;;6.17
60731;BMP280;46580;52.114;11.674;2024-03-23T08:49:51;-19383.88;;;6.14
60731;BMP280;46580;52.114;11.674;2024-03-23T08:52:18;-19385.47;;;6.20
60731;BMP280;46580;52.114;11.674;2024-03-23T08:54:44;-19384.59;;;6.17
60731;BMP280;46580;52.114;11.674;2024-03-23T08:57:09;-19386.59;;;6.24
60731;BMP280;46580;52.114;11.674;2024-03-23T08:59:35;-19388.34;;;6.30
60731;BMP280;46580;52.114;11.674;2024-03-23T09:02:00;-19387.75;;;6.28
60731;BMP280;46580;52.114;11.674;2024-03-23T09:04:26;-19385.19;;;6.19
60731;BMP280;46580;52.114;11.674;2024-03-23T09:06:51;-19384.59;;;6.17
60731;BMP280;46580;52.114;11.674;2024-03-23T09:09:17;-19385.47;;;6.20
60731;BMP280;46580;52.114;11.674;2024-03-23T09:11:45;-19385.03;;;6.18
60731;BMP280;46580;52.114;11.674;2024-03-23T09:14:10;-19385.19;;;6.19
60731;BMP280;46580;52.114;11.674;2024-03-23T09:16:36;-19383.88;;;6.14
60731;BMP280;46580;52.114;11.674;2024-03-23T09:19:02;-19383.16;;;6.12
60731;BMP280;46580;52.114;11.674;2024-03-23T09:21:28;-19383.75;;;6.14
60731;BMP280;46580;52.114;11.674;2024-03-23T09:23:54;-19385.75;;;6.21
60731;BMP280;46580;52.114;11.674;2024-03-23T09:26:20;-19387.63;;;6.27
60731;BMP280;46580;52.114;11.674;2024-03-23T09:28:48;-19388.19;;;6.29
60731;BMP280;46580;52.114;11.674;2024-03-23T09:31:14;-19390.19;;;6.36
60731;BMP280;46580;52.114;11.674;2024-03-23T09:33:40;-19390.63;;;6.37
60731;BMP280;46580;52.114;11.674;2024-03-23T09:36:06;-19390.47;;;6.37
60731;BMP280;46580;52.114;11.674;2024-03-23T09:38:32;-19389.75;;;6.34
60731;BMP280;46580;52.114;11.674;2024-03-23T09:40:58;-19389.06;;;6.32
60731;BMP280;46580;52.114;11.674;2024-03-23T09:43:25;-19390.06;;;6.35
60731;BMP280;46580;52.114;11.674;2024-03-23T09:45:51;-19390.34;;;6.36
60731;BMP280;46580;52.114;11.674;2024-03-23T09:48:17;-19390.19;;;6.36
60731;BMP280;46580;52.114;11.674;2024-03-23T09:50:44;-19390.34;;;6.36
60731;BMP280;46580;52.114;11.674;2024-03-23T09:53:12;-19391.19;;;6.39
60731;BMP280;46580;52.114;11.674;2024-03-23T09:55:39;-19394.34;;;6.50
60731;BMP280;46580;52.114;11.674;2024-03-23T09:58:07;-19397.22;;;6.60
60731;BMP280;46580;52.114;11.674;2024-03-23T10:00:34;-19399.22;;;6.67
60731;BMP280;46580;52.114;11.674;2024-03-23T10:03:00;-19400.66;;;6.71
60731;BMP280;46580;52.114;11.674;2024-03-23T10:05:31;-19398.94;;;6.66
60731;BMP280;46580;52.114;11.674;2024-03-23T10:07:58;-19399.22;;;6.67
60731;BMP280;46580;52.114;11.674;2024-03-23T10:10:28;-19399.94;;;6.69
60731;BMP280;46580;52.114;11.674;2024-03-23T10:12:55;-19403.69;;;6.82
60731;BMP280;46580;52.114;11.674;2024-03-23T10:15:25;-19402.97;;;6.79
60731;BMP280;46580;52.114;11.674;2024-03-23T10:17:51;-19403.69;;;6.82
60731;BMP280;46580;52.114;11.674;2024-03-23T10:20:21;-19404.53;;;6.85
60731;BMP280;46580;52.114;11.674;2024-03-23T10:22:50;-19405.25;;;6.87
60731;BMP280;46580;52.114;11.674;2024-03-23T10:25:24;-19405.25;;;6.87
60731;BMP280;46580;52.114;11.674;2024-03-23T10:27:59;-19404.69;;;6.85
60731;BMP280;46580;52.114;11.674;2024-03-23T10:30:28;-19406.41;;;6.91
60731;BMP280;46580;52.114;11.674;2024-03-23T10:33:13;-19406.97;;;6.93
60731;BMP280;46580;52.114;11.674;2024-03-23T10:35:40;-19405.53;;;6.88
60731;BMP280;46580;52.114;11.674;2024-03-23T10:38:07;-19407.97;;;6.96
60731;BMP280;46580;52.114;11.674;2024-03-23T10:40:35;-19410.28;;;7.04
60731;BMP280;46580;52.114;11.674;2024-03-23T10:43:04;-19413.84;;;7.16
60731;BMP280;46580;52.114;11.674;2024-03-23T10:45:31;-19415.72;;;7.23
60731;BMP280;46580;52.114;11.674;2024-03-23T10:48:01;-19418.72;;;7.33
60731;BMP280;46580;52.114;11.674;2024-03-23T10:50:27;-19425.63;;;7.56
60731;BMP280;46580;52.114;11.674;2024-03-23T10:52:53;-19429.06;;;7.68
60731;BMP280;46580;52.114;11.674;2024-03-23T10:55:24;-19432.50;;;7.79
60731;BMP280;46580;52.114;11.674;2024-03-23T10:57:52;-19432.78;;;7.80
60731;BMP280;46580;52.114;11.674;2024-03-23T11:00:20;-19429.34;;;7.69
60731;BMP280;46580;52.114;11.674;2024-03-23T11:02:49;-19428.78;;;7.67
60731;BMP280;46580;52.114;11.674;2024-03-23T11:05:34;-19426.75;;;7.60
60731;BMP280;46580;52.114;11.674;2024-03-23T11:08:00;-19408.41;;;6.98
60731;BMP280;46580;52.114;11.674;2024-03-23T11:10:30;-19405.25;;;6.87
60731;BMP280;46580;52.114;11.674;2024-03-23T11:12:57;-19401.38;;;6.74
60731;BMP280;46580;52.114;11.674;2024-03-23T11:15:24;-19399.38;;;6.67
60731;BMP280;46580;52.114;11.674;2024-03-23T11:18:05;-19392.63;;;6.44
60731;BMP280;46580;52.114;11.674;2024-03-23T11:20:34;-19385.19;;;6.19
60731;BMP280;46580;52.114;11.674;2024-03-23T11:23:00;-19382.88;;;6.11
60731;BMP280;46580;52.114;11.674;2024-03-23T11:25:27;-19388.47;;;6.30
60731;BMP280;46580;52.114;11.674;2024-03-23T11:30:27;-19387.63;;;6.27
60731;BMP280;46580;52.114;11.674;2024-03-23T11:32:57;-19392.06;;;6.42
60731;BMP280;46580;52.114;11.674;2024-03-23T11:35:31;-19399.09;;;6.66
60731;BMP280;46580;52.114;11.674;2024-03-23T11:38:12;-19404.53;;;6.85
60731;BMP280;46580;52.114;11.674;2024-03-23T11:40:42;-19411.00;;;7.06
60731;BMP280;46580;52.114;11.674;2024-03-23T11:43:11;-19415.16;;;7.21
60731;BMP280;46580;52.114;11.674;2024-03-23T11:45:40;-19419.59;;;7.36
60731;BMP280;46580;52.114;11.674;2024-03-23T11:50:33;-19442.81;;;8.15
60731;BMP280;46580;52.114;11.674;2024-03-23T11:53:16;-19447.97;;;8.32
60731;BMP280;46580;52.114;11.674;2024-03-23T11:55:53;-19449.69;;;8.38
60731;BMP280;46580;52.114;11.674;2024-03-23T11:58:23;-19455.13;;;8.56
60731;BMP280;46580;52.114;11.674;2024-03-23T12:00:59;-19453.69;;;8.52
60731;BMP280;46580;52.114;11.674;2024-03-23T12:03:26;-19455.41;;;8.57
60731;BMP280;46580;52.114;11.674;2024-03-23T12:05:54;-19447.97;;;8.32
60731;BMP280;46580;52.114;11.674;2024-03-23T12:08:31;-19441.97;;;8.12
60731;BMP280;46580;52.114;11.674;2024-03-23T12:11:09;-19439.22;;;8.02
60731;BMP280;46580;52.114;11.674;2024-03-23T12:13:37;-19439.09;;;8.02
60731;BMP280;46580;52.114;11.674;2024-03-23T12:18:37;-19448.84;;;8.35
60731;BMP280;46580;52.114;11.674;2024-03-23T12:21:03;-19444.97;;;8.22
60731;BMP280;46580;52.114;11.674;2024-03-23T12:23:29;-19446.25;;;8.26
60731;BMP280;46580;52.114;11.674;2024-03-23T12:25:54;-19445.25;;;8.23
60731;BMP280;46580;52.114;11.674;2024-03-23T12:28:20;-19444.97;;;8.22
60731;BMP280;46580;52.114;11.674;2024-03-23T12:30:46;-19439.94;;;8.05
60731;BMP280;46580;52.114;11.674;2024-03-23T12:33:13;-19438.22;;;7.99
60731;BMP280;46580;52.114;11.674;2024-03-23T12:35:39;-19436.78;;;7.94
60731;BMP280;46580;52.114;11.674;2024-03-23T12:38:04;-19437.22;;;7.96
60731;BMP280;46580;52.114;11.674;2024-03-23T12:40:30;-19434.94;;;7.88
60731;BMP280;46580;52.114;11.674;2024-03-23T12:42:56;-19431.34;;;7.76
60731;BMP280;46580;52.114;11.674;2024-03-23T12:45:22;-19434.50;;;7.86
60731;BMP280;46580;52.114;11.674;2024-03-23T12:47:49;-19448.41;;;8.34
60731;BMP280;46580;52.114;11.674;2024-03-23T12:50:14;-19464.44;;;8.88
60731;BMP280;46580;52.114;11.674;2024-03-23T12:52:41;-19469.47;;;9.05
60731;BMP280;46580;52.114;11.674;2024-03-23T12:55:18;-19482.06;;;9.48
60731;BMP280;46580;52.114;11.674;2024-03-23T12:57:44;-19481.19;;;9.45
60731;BMP280;46580;52.114;11.674;2024-03-23T13:00:20;-19484.06;;;9.55
60731;BMP280;46580;52.114;11.674;2024-03-23T13:02:47;-19489.34;;;9.73
60731;BMP280;46580;52.114;11.674;2024-03-23T13:05:13;-19476.75;;;9.30
60731;BMP280;46580;52.114;11.674;2024-03-23T13:07:39;-19484.91;;;9.58
60731;BMP280;46580;52.114;11.674;2024-03-23T13:10:05;-19468.75;;;9.03
60731;BMP280;46580;52.114;11.674;2024-03-23T13:12:31;-19459.72;;;8.72
60731;BMP280;46580;52.114;11.674;2024-03-23T13:14:59;-19453.69;;;8.52
60731;BMP280;46580;52.114;11.674;2024-03-23T13:17:25;-19453.69;;;8.52
60731;BMP280;46580;52.114;11.674;2024-03-23T13:19:53;-19450.56;;;8.41
60731;BMP280;46580;52.114;11.674;2024-03-23T13:22:18;-19451.84;;;8.45
60731;BMP280;46580;52.114;11.674;2024-03-23T13:24:44;-19453.13;;;8.50
60731;BMP280;46580;52.114;11.674;2024-03-23T13:27:13;-19452.84;;;8.49
60731;BMP280;46580;52.114;11.674;2024-03-23T13:29:39;-19443.38;;;8.17
60731;BMP280;46580;52.114;11.674;2024-03-23T13:32:04;-19448.13;;;8.33
60731;BMP280;46580;52.114;11.674;2024-03-23T13:34:31;-19453.41;;;8.51
60731;BMP280;46580;52.114;11.674;2024-03-23T13:36:56;-19449.69;;;8.38
60731;BMP280;46580;52.114;11.674;2024-03-23T13:39:25;-19441.66;;;8.11
60731;BMP280;46580;52.114;11.674;2024-03-23T13:41:53;-19436.94;;;7.95
60731;BMP280;46580;52.114;11.674;2024-03-23T13:44:20;-19434.50;;;7.86
60731;BMP280;46580;52.114;11.674;2024-03-23T13:46:46;-19434.06;;;7.85
60731;BMP280;46580;52.114;11.674;2024-03-23T13:51:57;-19436.22;;;7.92
60731;BMP280;46580;52.114;11.674;2024-03-23T13:54:27;-19428.47;;;7.66
60731;BMP280;46580;52.114;11.674;2024-03-23T13:56:54;-19411.00;;;7.06
60731;BMP280;46580;52.114;11.674;2024-03-23T13:59:21;-19406.84;;;6.92
60731;BMP280;46580;52.114;11.674;2024-03-23T14:01:48;-19404.97;;;6.86
60731;BMP280;46580;52.114;11.674;2024-03-23T14:04:14;-19405.81;;;6.89
60731;BMP280;46580;52.114;11.674;2024-03-23T14:06:45;-19407.84;;;6.96
60731;BMP280;46580;52.114;11.674;2024-03-23T14:09:14;-19410.13;;;7.04
60731;BMP280;46580;52.114;11.674;2024-03-23T14:11:44;-19429.47;;;7.69
60731;BMP280;46580;52.114;11.674;2024-03-23T14:14:10;-19436.78;;;7.94
60731;BMP280;46580;52.114;11.674;2024-03-23T14:16:36;-19443.97;;;8.18
60731;BMP280;46580;52.114;11.674;2024-03-23T14:19:03;-19448.25;;;8.33
60731;BMP280;46580;52.114;11.674;2024-03-23T14:21:33;-19442.81;;;8.15
60731;BMP280;46580;52.114;11.674;2024-03-23T14:24:04;-19439.53;;;8.03
60731;BMP280;46580;52.114;11.674;2024-03-23T14:26:31;-19442.97;;;8.15
60731;BMP280;46580;52.114;11.674;2024-03-23T14:28:56;-19441.38;;;8.10
60731;BMP280;46580;52.114;11.674;2024-03-23T14:31:22;-19440.25;;;8.06
60731;BMP280;46580;52.114;11.674;2024-03-23T14:33:49;-19436.94;;;7.95
60731;BMP280;46580;52.114;11.674;2024-03-23T14:36:17;-19435.34;;;7.89
60731;BMP280;46580;52.114;11.674;2024-03-23T14:38:49;-19432.50;;;7.79
60731;BMP280;46580;52.114;11.674;2024-03-23T14:41:15;-19429.06;;;7.68
60731;BMP280;46580;52.114;11.674;2024-03-23T14:43:41;-19419.88;;;7.37
60731;BMP280;46580;52.114;11.674;2024-03-23T14:46:16;-19412.84;;;7.13
60731;BMP280;46580;52.114;11.674;2024-03-23T14:48:43;-19407.25;;;6.94
60731;BMP280;46580;52.114;11.674;2024-03-23T14:51:09;-19404.69;;;6.85
60731;BMP280;46580;52.114;11.674;2024-03-23T14:53:40;-19400.66;;;6.71
60731;BMP280;46580;52.114;11.674;2024-03-23T14:56:11;-19396.38;;;6.57
60731;BMP280;46580;52.114;11.674;2024-03-23T14:58:41;-19391.47;;;6.40
60731;BMP280;46580;52.114;11.674;2024-03-23T15:01:08;-19387.47;;;6.27